REU106 FMEE-FIMP
Flight info
| Callsign | REU106 |
|---|---|
| Flight time | 0h 30m |
| Altitude | 17000 |
| Route | EPTEK2J EPTEK EPTEK2E |
| Aircraft | B77W/H-SDE1E2E3FGHIJ2J3J4J5M1RWXY/LB1D1 |
Departure
| Time | 2026-04-28 10:30 |
|---|---|
| Airport | Roland Garros Airport (FMEE) |
Arrival
| Time | 2026-04-28 11:00 |
|---|---|
| Airport | Sir Seewoosagur Ramgoolam International Airport (FIMP) |
| Time | Latitude | Longitude | Altitude | Speed | Heading |
|---|---|---|---|---|---|
| 2026-04-28 10:19 | -20.89014 | 55.51113 | 134 ft | 0 kts | 205° |
| 2026-04-28 10:19 | -20.89003 | 55.51118 | 133 ft | 2 kts | 205° |
| 2026-04-28 10:19 | -20.88989 | 55.51125 | 133 ft | 2 kts | 205° |
| 2026-04-28 10:20 | -20.88975 | 55.51133 | 133 ft | 2 kts | 211° |
| 2026-04-28 10:20 | -20.88965 | 55.51143 | 132 ft | 2 kts | 239° |
| 2026-04-28 10:20 | -20.88959 | 55.51158 | 132 ft | 2 kts | 262° |
| 2026-04-28 10:20 | -20.88959 | 55.51173 | 132 ft | 2 kts | 284° |
| 2026-04-28 10:21 | -20.88965 | 55.51188 | 133 ft | 2 kts | 300° |
| 2026-04-28 10:21 | -20.88972 | 55.51202 | 133 ft | 2 kts | 298° |
| 2026-04-28 10:21 | -20.88979 | 55.51216 | 133 ft | 2 kts | 296° |
| 2026-04-28 10:21 | -20.88985 | 55.51230 | 133 ft | 2 kts | 296° |
| 2026-04-28 10:22 | -20.88992 | 55.51245 | 133 ft | 2 kts | 296° |
| 2026-04-28 10:22 | -20.88999 | 55.51259 | 133 ft | 2 kts | 296° |
| 2026-04-28 10:22 | -20.89006 | 55.51273 | 134 ft | 1 kts | 296° |
| 2026-04-28 10:22 | -20.89006 | 55.51275 | 134 ft | 0 kts | 296° |
| 2026-04-28 10:23 | -20.89006 | 55.51274 | 133 ft | 0 kts | 296° |
| 2026-04-28 10:24 | -20.89001 | 55.51263 | 133 ft | 6 kts | 296° |
| 2026-04-28 10:24 | -20.88978 | 55.51214 | 133 ft | 0 kts | 296° |
| 2026-04-28 10:25 | -20.88977 | 55.51211 | 133 ft | 0 kts | 296° |
| 2026-04-28 10:25 | -20.88972 | 55.51204 | 133 ft | 1 kts | 310° |
| 2026-04-28 10:25 | -20.88949 | 55.51193 | 132 ft | 6 kts | 340° |
| 2026-04-28 10:25 | -20.88897 | 55.51173 | 131 ft | 8 kts | 340° |
| 2026-04-28 10:26 | -20.88834 | 55.51149 | 129 ft | 10 kts | 341° |
| 2026-04-28 10:26 | -20.88763 | 55.51125 | 127 ft | 10 kts | 341° |
| 2026-04-28 10:26 | -20.88718 | 55.51069 | 126 ft | 11 kts | 284° |
| 2026-04-28 10:26 | -20.88702 | 55.50986 | 126 ft | 11 kts | 282° |
| 2026-04-28 10:27 | -20.88685 | 55.50898 | 125 ft | 12 kts | 282° |
| 2026-04-28 10:27 | -20.88667 | 55.50810 | 125 ft | 12 kts | 282° |
| 2026-04-28 10:27 | -20.88648 | 55.50720 | 124 ft | 12 kts | 282° |
| 2026-04-28 10:27 | -20.88629 | 55.50627 | 124 ft | 12 kts | 282° |
| 2026-04-28 10:28 | -20.88616 | 55.50563 | 123 ft | 6 kts | 284° |
| 2026-04-28 10:28 | -20.88590 | 55.50525 | 123 ft | 5 kts | 311° |
| 2026-04-28 10:28 | -20.88581 | 55.50498 | 122 ft | 3 kts | 256° |
| 2026-04-28 10:29 | -20.88608 | 55.50523 | 123 ft | 5 kts | 101° |
| 2026-04-28 10:29 | -20.88612 | 55.50545 | 123 ft | 0 kts | 103° |
| 2026-04-28 10:30 | -20.88629 | 55.50624 | 124 ft | 34 kts | 102° |
| 2026-04-28 10:30 | -20.88738 | 55.51164 | 127 ft | 113 kts | 101° |
| 2026-04-28 10:30 | -20.88953 | 55.52224 | 289 ft | 164 kts | 101° |
| 2026-04-28 10:30 | -20.89178 | 55.53403 | 1105 ft | 168 kts | 94° |
| 2026-04-28 10:31 | -20.89047 | 55.54604 | 1844 ft | 170 kts | 69° |
| 2026-04-28 10:31 | -20.88440 | 55.55711 | 2414 ft | 181 kts | 50° |
| 2026-04-28 10:31 | -20.87598 | 55.56770 | 2987 ft | 195 kts | 49° |
| 2026-04-28 10:31 | -20.86683 | 55.57930 | 3577 ft | 212 kts | 50° |
| 2026-04-28 10:32 | -20.85714 | 55.59166 | 4177 ft | 229 kts | 50° |
| 2026-04-28 10:32 | -20.84663 | 55.60506 | 4812 ft | 245 kts | 50° |
| 2026-04-28 10:32 | -20.83530 | 55.61950 | 5513 ft | 260 kts | 50° |
| 2026-04-28 10:32 | -20.82360 | 55.63442 | 6453 ft | 265 kts | 50° |
| 2026-04-28 10:33 | -20.81180 | 55.64946 | 7380 ft | 269 kts | 50° |
| 2026-04-28 10:33 | -20.79982 | 55.66473 | 8169 ft | 277 kts | 50° |
| 2026-04-28 10:33 | -20.78741 | 55.68054 | 9049 ft | 281 kts | 50° |
| 2026-04-28 10:33 | -20.77478 | 55.69662 | 9883 ft | 286 kts | 50° |
| 2026-04-28 10:34 | -20.76182 | 55.71313 | 10613 ft | 297 kts | 50° |
| 2026-04-28 10:34 | -20.74829 | 55.73035 | 11181 ft | 314 kts | 50° |
| 2026-04-28 10:34 | -20.73375 | 55.74885 | 11752 ft | 331 kts | 50° |
| 2026-04-28 10:34 | -20.71870 | 55.76801 | 12327 ft | 347 kts | 50° |
| 2026-04-28 10:35 | -20.70298 | 55.78799 | 12933 ft | 362 kts | 50° |
| 2026-04-28 10:35 | -20.68651 | 55.80892 | 13728 ft | 372 kts | 50° |
| 2026-04-28 10:35 | -20.66967 | 55.83030 | 14627 ft | 378 kts | 50° |
| 2026-04-28 10:35 | -20.65282 | 55.85169 | 15516 ft | 385 kts | 49° |
| 2026-04-28 10:36 | -20.63550 | 55.87365 | 16384 ft | 390 kts | 49° |
| 2026-04-28 10:36 | -20.61779 | 55.89608 | 16824 ft | 392 kts | 48° |
| 2026-04-28 10:36 | -20.59933 | 55.91746 | 16898 ft | 391 kts | 45° |
| 2026-04-28 10:36 | -20.58077 | 55.93837 | 16901 ft | 389 kts | 46° |
| 2026-04-28 10:37 | -20.56256 | 55.95957 | 16902 ft | 388 kts | 50° |
| 2026-04-28 10:37 | -20.54749 | 55.98344 | 16900 ft | 390 kts | 60° |
| 2026-04-28 10:37 | -20.53672 | 56.01038 | 16899 ft | 392 kts | 72° |
| 2026-04-28 10:37 | -20.53093 | 56.03887 | 16903 ft | 403 kts | 82° |
| 2026-04-28 10:38 | -20.53011 | 56.06892 | 16903 ft | 403 kts | 91° |
| 2026-04-28 10:38 | -20.53123 | 56.09871 | 16903 ft | 404 kts | 91° |
| 2026-04-28 10:38 | -20.53244 | 56.12855 | 16904 ft | 404 kts | 91° |
| 2026-04-28 10:38 | -20.53365 | 56.15839 | 16905 ft | 404 kts | 91° |
| 2026-04-28 10:39 | -20.53487 | 56.18835 | 16905 ft | 404 kts | 91° |
| 2026-04-28 10:39 | -20.53608 | 56.21852 | 16905 ft | 404 kts | 91° |
| 2026-04-28 10:39 | -20.53727 | 56.24817 | 16903 ft | 404 kts | 91° |
| 2026-04-28 10:39 | -20.53847 | 56.27821 | 16901 ft | 404 kts | 91° |
| 2026-04-28 10:40 | -20.53965 | 56.30792 | 16900 ft | 404 kts | 91° |
| 2026-04-28 10:40 | -20.54084 | 56.33801 | 16906 ft | 404 kts | 91° |
| 2026-04-28 10:40 | -20.54201 | 56.36785 | 16907 ft | 404 kts | 91° |
| 2026-04-28 10:40 | -20.54319 | 56.39775 | 16903 ft | 404 kts | 91° |
| 2026-04-28 10:41 | -20.54436 | 56.42780 | 16903 ft | 404 kts | 91° |
| 2026-04-28 10:41 | -20.54552 | 56.45748 | 16904 ft | 403 kts | 91° |
| 2026-04-28 10:41 | -20.54668 | 56.48750 | 16907 ft | 404 kts | 91° |
| 2026-04-28 10:41 | -20.54783 | 56.51740 | 16908 ft | 404 kts | 91° |
| 2026-04-28 10:42 | -20.54898 | 56.54736 | 16908 ft | 404 kts | 91° |
| 2026-04-28 10:42 | -20.55012 | 56.57728 | 16905 ft | 403 kts | 91° |
| 2026-04-28 10:42 | -20.55126 | 56.60729 | 16906 ft | 404 kts | 91° |
| 2026-04-28 10:42 | -20.55239 | 56.63709 | 16907 ft | 403 kts | 91° |
| 2026-04-28 10:43 | -20.55351 | 56.66694 | 16908 ft | 404 kts | 91° |
| 2026-04-28 10:43 | -20.55464 | 56.69699 | 16912 ft | 404 kts | 91° |
| 2026-04-28 10:43 | -20.55575 | 56.72671 | 16912 ft | 404 kts | 91° |
| 2026-04-28 10:43 | -20.55685 | 56.75643 | 16911 ft | 403 kts | 91° |
| 2026-04-28 10:44 | -20.55797 | 56.78659 | 16910 ft | 404 kts | 91° |
| 2026-04-28 10:44 | -20.55907 | 56.81641 | 16913 ft | 404 kts | 91° |
| 2026-04-28 10:44 | -20.56016 | 56.84622 | 16912 ft | 403 kts | 91° |
| 2026-04-28 10:44 | -20.56126 | 56.87637 | 16912 ft | 404 kts | 91° |
| 2026-04-28 10:45 | -20.56234 | 56.90610 | 16910 ft | 403 kts | 91° |
| 2026-04-28 10:45 | -20.56341 | 56.93587 | 16910 ft | 403 kts | 91° |
| 2026-04-28 10:45 | -20.56449 | 56.96583 | 16909 ft | 395 kts | 91° |
| 2026-04-28 10:45 | -20.56553 | 56.99446 | 16909 ft | 379 kts | 91° |
| 2026-04-28 10:46 | -20.56651 | 57.02205 | 16842 ft | 369 kts | 91° |
| 2026-04-28 10:46 | -20.56747 | 57.04901 | 16481 ft | 363 kts | 91° |
| 2026-04-28 10:46 | -20.56842 | 57.07571 | 16012 ft | 361 kts | 91° |
| 2026-04-28 10:46 | -20.56935 | 57.10232 | 15542 ft | 359 kts | 91° |
| 2026-04-28 10:47 | -20.57027 | 57.12872 | 15116 ft | 356 kts | 91° |
| 2026-04-28 10:47 | -20.57119 | 57.15494 | 14688 ft | 352 kts | 91° |
| 2026-04-28 10:47 | -20.57209 | 57.18109 | 14264 ft | 349 kts | 91° |
| 2026-04-28 10:47 | -20.57298 | 57.20663 | 13833 ft | 346 kts | 91° |
| 2026-04-28 10:48 | -20.57385 | 57.23214 | 13396 ft | 343 kts | 91° |
| 2026-04-28 10:48 | -20.57472 | 57.25742 | 12892 ft | 340 kts | 91° |
| 2026-04-28 10:48 | -20.57558 | 57.28261 | 12356 ft | 338 kts | 91° |
| 2026-04-28 10:48 | -20.57642 | 57.30740 | 11858 ft | 334 kts | 91° |
| 2026-04-28 10:49 | -20.57725 | 57.33179 | 11362 ft | 331 kts | 91° |
| 2026-04-28 10:49 | -20.57807 | 57.35616 | 10867 ft | 328 kts | 91° |
| 2026-04-28 10:49 | -20.57889 | 57.38060 | 10391 ft | 326 kts | 91° |
| 2026-04-28 10:49 | -20.57968 | 57.40442 | 9995 ft | 322 kts | 91° |
| 2026-04-28 10:50 | -20.58047 | 57.42786 | 9785 ft | 312 kts | 91° |
| 2026-04-28 10:50 | -20.58097 | 57.44298 | 9727 ft | 301 kts | 91° |
| 2026-04-28 10:50 | -20.58194 | 57.47190 | 9613 ft | 282 kts | 90° |
| 2026-04-28 10:50 | -20.58262 | 57.49238 | 9382 ft | 274 kts | 90° |
| 2026-04-28 10:51 | -20.58328 | 57.51244 | 9061 ft | 270 kts | 90° |
| 2026-04-28 10:51 | -20.58393 | 57.53239 | 8704 ft | 268 kts | 90° |
| 2026-04-28 10:51 | -20.58457 | 57.55229 | 8342 ft | 265 kts | 90° |
| 2026-04-28 10:51 | -20.58520 | 57.57170 | 7989 ft | 263 kts | 90° |
| 2026-04-28 10:52 | -20.58583 | 57.59105 | 7633 ft | 261 kts | 90° |
| 2026-04-28 10:52 | -20.58645 | 57.61031 | 7275 ft | 259 kts | 90° |
| 2026-04-28 10:52 | -20.58706 | 57.62962 | 6910 ft | 257 kts | 90° |
| 2026-04-28 10:52 | -20.58767 | 57.64853 | 6551 ft | 256 kts | 89° |
| 2026-04-28 10:53 | -20.58826 | 57.66748 | 6194 ft | 254 kts | 89° |
| 2026-04-28 10:53 | -20.58886 | 57.68620 | 5838 ft | 253 kts | 89° |
| 2026-04-28 10:53 | -20.58945 | 57.70489 | 5479 ft | 252 kts | 89° |
| 2026-04-28 10:53 | -20.59003 | 57.72349 | 5119 ft | 250 kts | 89° |
| 2026-04-28 10:54 | -20.59060 | 57.74195 | 4763 ft | 249 kts | 89° |
| 2026-04-28 10:54 | -20.59117 | 57.76040 | 4405 ft | 248 kts | 89° |
| 2026-04-28 10:54 | -20.59174 | 57.77871 | 4047 ft | 247 kts | 89° |
| 2026-04-28 10:54 | -20.59231 | 57.79698 | 3742 ft | 245 kts | 89° |
| 2026-04-28 10:55 | -20.59061 | 57.81447 | 3639 ft | 230 kts | 68° |
| 2026-04-28 10:55 | -20.58250 | 57.82881 | 3616 ft | 224 kts | 45° |
| 2026-04-28 10:55 | -20.57056 | 57.83846 | 3619 ft | 210 kts | 33° |
| 2026-04-28 10:55 | -20.55839 | 57.84640 | 3626 ft | 201 kts | 31° |
| 2026-04-28 10:56 | -20.54620 | 57.85318 | 3610 ft | 191 kts | 21° |
| 2026-04-28 10:56 | -20.53350 | 57.85547 | 3616 ft | 181 kts | 2° |
| 2026-04-28 10:56 | -20.52157 | 57.85293 | 3614 ft | 169 kts | 342° |
| 2026-04-28 10:56 | -20.51155 | 57.84651 | 3598 ft | 170 kts | 324° |
| 2026-04-28 10:57 | -20.50343 | 57.83645 | 3224 ft | 185 kts | 305° |
| 2026-04-28 10:57 | -20.49752 | 57.82397 | 2856 ft | 191 kts | 301° |
| 2026-04-28 10:57 | -20.49167 | 57.81139 | 2550 ft | 191 kts | 301° |
| 2026-04-28 10:57 | -20.48578 | 57.79904 | 2265 ft | 181 kts | 302° |
| 2026-04-28 10:58 | -20.48011 | 57.78723 | 2012 ft | 174 kts | 302° |
| 2026-04-28 10:58 | -20.47471 | 57.77602 | 1775 ft | 171 kts | 302° |
| 2026-04-28 10:58 | -20.46929 | 57.76475 | 1547 ft | 162 kts | 302° |
| 2026-04-28 10:58 | -20.46429 | 57.75434 | 1362 ft | 159 kts | 302° |
| 2026-04-28 10:59 | -20.45934 | 57.74388 | 1156 ft | 158 kts | 301° |
| 2026-04-28 10:59 | -20.45435 | 57.73355 | 952 ft | 156 kts | 301° |
| 2026-04-28 10:59 | -20.44925 | 57.72329 | 739 ft | 155 kts | 302° |
| 2026-04-28 10:59 | -20.44443 | 57.71308 | 513 ft | 155 kts | 300° |
| 2026-04-28 11:00 | -20.43948 | 57.70298 | 271 ft | 152 kts | 301° |
| 2026-04-28 11:00 | -20.43488 | 57.69321 | 134 ft | 134 kts | 299° |
| 2026-04-28 11:00 | -20.43154 | 57.68629 | 169 ft | 71 kts | 296° |
| 2026-04-28 11:00 | -20.43024 | 57.68357 | 179 ft | 25 kts | 297° |
| 2026-04-28 11:01 | -20.42949 | 57.68205 | 184 ft | 21 kts | 297° |
| 2026-04-28 11:01 | -20.42886 | 57.68077 | 187 ft | 17 kts | 296° |
| 2026-04-28 11:01 | -20.42836 | 57.67971 | 190 ft | 14 kts | 297° |
| 2026-04-28 11:01 | -20.42792 | 57.67880 | 192 ft | 14 kts | 297° |
| 2026-04-28 11:02 | -20.42734 | 57.67761 | 195 ft | 20 kts | 297° |